Time;durP1;ratioP1;P1;durP2;ratioP2;P2;SDS_P1;SDS_P2;PMS_P1;PMS_P2;Temp;Humidity;BMP_temperature;BMP_pressure;BME280_temperature;BME280_humidity;BME280_pressure;Samples;Min_cycle;Max_cycle;Signal;HPM_P1;HPM_P2
2022/10/01 00:09:46;;;;;;;9.90;8.90;;;15.70;99.90;;;;;;6002982;24;20504;-70
2022/10/01 00:13:47;;;;;;;17.53;9.83;;;15.70;99.90;;;;;;5973772;29;20553;-71
2022/10/01 00:21:25;;;;;;;10.13;9.23;;;15.70;99.90;;;;;;6019619;29;20842;-71
2022/10/01 00:25:49;;;;;;;10.10;9.10;;;15.70;99.90;;;;;;6025770;29;20564;-71
2022/10/01 00:28:55;;;;;;;10.63;9.57;;;15.70;99.90;;;;;;6026217;29;20486;-71
2022/10/01 00:31:58;;;;;;;12.60;10.07;;;15.60;99.90;;;;;;6027576;29;20491;-71
2022/10/01 00:35:02;;;;;;;13.10;11.80;;;15.70;99.90;;;;;;6035415;29;20479;-71
2022/10/01 00:38:06;;;;;;;13.93;11.60;;;15.60;99.90;;;;;;6032734;29;20537;-71
2022/10/01 00:41:10;;;;;;;13.13;10.77;;;15.60;99.90;;;;;;6027266;29;20480;-72
2022/10/01 00:44:32;;;;;;;12.40;9.70;;;15.60;99.90;;;;;;6031584;29;20475;-70
2022/10/01 00:47:38;;;;;;;18.53;12.07;;;15.60;99.90;;;;;;6030787;29;20483;-70
2022/10/01 00:50:42;;;;;;;16.17;10.80;;;15.60;99.90;;;;;;6040280;29;20817;-70
2022/10/01 00:53:47;;;;;;;11.87;9.87;;;15.60;99.90;;;;;;6040597;29;20483;-71
2022/10/01 00:56:53;;;;;;;13.57;11.00;;;15.60;99.90;;;;;;6040145;29;20487;-71
2022/10/01 00:59:59;;;;;;;14.63;11.10;;;15.60;99.90;;;;;;6040318;29;20480;-71
2022/10/01 01:03:03;;;;;;;16.93;13.63;;;15.50;99.90;;;;;;6040359;29;20507;-71
2022/10/01 01:06:08;;;;;;;14.90;12.07;;;15.30;99.90;;;;;;6041166;29;20475;-70
2022/10/01 01:09:13;;;;;;;14.30;12.33;;;15.30;99.90;;;;;;6040313;29;20948;-70
2022/10/01 01:12:33;;;;;;;14.50;11.80;;;15.30;99.90;;;;;;6040105;29;20491;-72
2022/10/01 01:15:42;;;;;;;16.37;12.30;;;15.30;99.90;;;;;;6037438;29;20480;-71
2022/10/01 01:18:52;;;;;;;19.00;13.27;;;15.30;99.90;;;;;;6015994;29;20553;-72
2022/10/01 01:22:00;;;;;;;22.60;14.80;;;15.30;99.90;;;;;;6016705;29;20484;-71
2022/10/01 01:25:09;;;;;;;16.73;13.30;;;15.40;99.90;;;;;;6016636;29;21034;-71
2022/10/01 01:28:22;;;;;;;18.83;13.30;;;15.40;99.90;;;;;;6011906;29;20479;-71
2022/10/01 01:31:30;;;;;;;17.37;13.30;;;15.40;99.90;;;;;;6017165;29;20464;-71
2022/10/01 01:34:38;;;;;;;20.70;14.53;;;15.40;99.90;;;;;;6016876;29;20479;-71
2022/10/01 01:37:49;;;;;;;30.57;16.43;;;15.50;99.90;;;;;;6016316;29;20504;-72
2022/10/01 01:40:55;;;;;;;20.67;16.17;;;15.40;99.90;;;;;;6015199;29;20985;-72
2022/10/01 01:44:02;;;;;;;22.07;14.27;;;15.20;99.90;;;;;;6016542;29;20730;-72
2022/10/01 01:47:09;;;;;;;20.97;14.97;;;15.30;99.90;;;;;;6016589;29;20557;-72
2022/10/01 01:50:14;;;;;;;21.83;15.37;;;15.30;99.90;;;;;;6016163;29;20503;-71
2022/10/01 01:53:18;;;;;;;25.07;14.93;;;15.30;99.90;;;;;;6016078;29;20504;-71
2022/10/01 01:56:21;;;;;;;21.87;14.30;;;15.30;99.90;;;;;;6015815;29;20484;-71
2022/10/01 01:59:26;;;;;;;23.13;16.37;;;15.30;99.90;;;;;;6018984;29;20480;-72
2022/10/01 02:02:32;;;;;;;16.63;12.60;;;15.30;99.90;;;;;;6016255;29;20560;-71
2022/10/01 02:05:42;;;;;;;21.00;13.70;;;15.30;99.90;;;;;;6016232;29;20492;-70
2022/10/01 02:08:50;;;;;;;16.73;13.10;;;15.30;99.90;;;;;;6016146;29;20525;-69
2022/10/01 02:12:06;;;;;;;13.23;11.33;;;15.30;99.90;;;;;;6032530;29;20483;-69
2022/10/01 02:15:19;;;;;;;12.33;10.63;;;15.30;99.90;;;;;;6033509;29;20477;-70
2022/10/01 02:18:29;;;;;;;12.50;10.77;;;15.30;99.90;;;;;;6035685;29;20589;-70
2022/10/01 02:21:38;;;;;;;14.40;10.80;;;15.20;99.90;;;;;;6036043;29;20476;-71
2022/10/01 02:24:45;;;;;;;11.00;9.20;;;15.20;99.90;;;;;;6029328;29;20493;-71
2022/10/01 02:27:54;;;;;;;11.33;9.87;;;15.10;99.90;;;;;;6025344;29;20537;-70
2022/10/01 02:31:02;;;;;;;10.40;9.17;;;15.20;99.90;;;;;;6024338;29;20481;-71
2022/10/01 02:34:07;;;;;;;11.00;9.90;;;15.20;99.90;;;;;;6021605;29;20440;-71
2022/10/01 02:37:16;;;;;;;9.90;9.00;;;15.20;99.90;;;;;;6020010;29;20578;-70
2022/10/01 02:40:25;;;;;;;8.20;7.37;;;15.10;99.90;;;;;;6017179;29;20517;-70
2022/10/01 02:43:32;;;;;;;9.53;8.67;;;15.10;99.90;;;;;;6016706;29;20460;-70
2022/10/01 02:46:43;;;;;;;9.90;8.80;;;15.10;99.90;;;;;;6016405;29;20548;-71
2022/10/01 02:49:47;;;;;;;10.37;9.40;;;15.10;99.90;;;;;;6015900;29;20831;-70
2022/10/01 02:52:55;;;;;;;10.80;9.57;;;15.00;99.90;;;;;;6015195;29;20515;-70
2022/10/01 02:55:59;;;;;;;10.40;8.60;;;15.10;99.90;;;;;;6015545;29;20480;-71
2022/10/01 02:59:01;;;;;;;13.87;10.27;;;15.00;99.90;;;;;;6014604;29;20491;-70
2022/10/01 03:02:06;;;;;;;11.13;10.03;;;15.00;99.90;;;;;;6014569;29;20472;-70
2022/10/01 03:05:10;;;;;;;11.87;10.17;;;15.00;99.90;;;;;;6014523;29;20524;-72
2022/10/01 03:08:13;;;;;;;11.73;9.43;;;15.00;99.90;;;;;;6014362;29;20484;-70
2022/10/01 03:11:16;;;;;;;9.83;8.83;;;15.00;99.90;;;;;;6014705;29;20517;-72
2022/10/01 03:14:19;;;;;;;10.73;9.27;;;15.10;99.90;;;;;;6014323;29;20575;-71
2022/10/01 03:17:24;;;;;;;9.80;8.90;;;15.10;99.90;;;;;;6014112;29;20503;-71
2022/10/01 03:20:27;;;;;;;9.63;8.83;;;15.10;99.90;;;;;;6014147;29;21022;-71
2022/10/01 03:23:30;;;;;;;10.60;8.50;;;15.10;99.90;;;;;;6014032;29;20491;-71
2022/10/01 03:26:33;;;;;;;11.03;9.70;;;15.10;99.90;;;;;;6014175;29;20609;-71
2022/10/01 03:29:36;;;;;;;10.40;9.40;;;15.10;99.90;;;;;;6013863;29;20491;-69
2022/10/01 03:32:41;;;;;;;10.33;8.80;;;15.10;99.90;;;;;;6013807;29;20669;-71
2022/10/01 03:35:44;;;;;;;9.87;8.83;;;15.20;99.90;;;;;;6013909;29;20513;-71
2022/10/01 03:38:47;;;;;;;9.47;8.50;;;15.20;99.90;;;;;;6005028;29;20486;-70
2022/10/01 03:41:50;;;;;;;11.50;9.20;;;15.10;99.90;;;;;;6013773;29;20503;-70
2022/10/01 03:44:53;;;;;;;11.63;10.30;;;15.10;99.90;;;;;;6013881;29;20491;-70
2022/10/01 03:47:58;;;;;;;11.10;9.97;;;15.10;99.90;;;;;;6013902;29;20483;-69
2022/10/01 03:51:01;;;;;;;11.93;10.83;;;15.10;99.90;;;;;;6013602;29;20488;-71
2022/10/01 03:54:05;;;;;;;12.50;11.30;;;15.10;99.90;;;;;;6013921;29;20480;-71
2022/10/01 03:57:08;;;;;;;10.30;9.20;;;15.10;99.90;;;;;;6013254;29;21074;-70
2022/10/01 04:00:12;;;;;;;12.30;9.93;;;15.10;99.90;;;;;;6013553;29;20488;-70
2022/10/01 04:03:17;;;;;;;10.77;9.70;;;15.10;99.90;;;;;;6013666;29;20487;-70
2022/10/01 04:06:21;;;;;;;11.20;10.03;;;15.10;99.90;;;;;;6012493;29;20996;-70
2022/10/01 04:09:24;;;;;;;11.90;10.80;;;15.10;99.90;;;;;;6012788;29;20488;-70
2022/10/01 04:12:27;;;;;;;12.17;10.97;;;15.20;99.90;;;;;;6012951;29;20484;-71
2022/10/01 04:15:31;;;;;;;12.50;10.37;;;15.10;99.90;;;;;;6013223;29;20567;-70
2022/10/01 04:18:36;;;;;;;12.63;11.43;;;15.10;99.90;;;;;;6013428;29;20556;-70
2022/10/01 04:21:39;;;;;;;10.60;9.60;;;15.10;99.90;;;;;;6013458;29;20962;-71
2022/10/01 04:24:42;;;;;;;11.90;10.70;;;15.10;99.90;;;;;;6013729;29;20548;-71
2022/10/01 04:27:55;;;;;;;10.27;9.37;;;15.20;99.90;;;;;;6013474;29;20556;-71
2022/10/01 04:34:17;;;;;;;11.37;9.00;;;15.20;99.90;;;;;;6013553;29;20818;-71
2022/10/01 04:37:21;;;;;;;12.70;10.67;;;15.20;99.90;;;;;;6013434;29;20499;-71
2022/10/01 04:40:24;;;;;;;12.33;11.20;;;15.20;99.90;;;;;;6009214;29;20813;-71
2022/10/01 04:43:27;;;;;;;13.00;11.70;;;15.30;99.90;;;;;;6013412;29;20472;-71
2022/10/01 04:46:30;;;;;;;12.30;11.10;;;15.30;99.90;;;;;;6013564;29;20969;-71
2022/10/01 04:49:35;;;;;;;14.00;12.60;;;15.20;99.90;;;;;;6013333;29;20532;-71
2022/10/01 04:52:38;;;;;;;14.10;12.70;;;15.20;99.90;;;;;;6013679;29;20584;-71
2022/10/01 04:55:42;;;;;;;12.03;10.93;;;15.10;99.90;;;;;;6013343;29;20484;-71
2022/10/01 04:58:45;;;;;;;11.77;10.53;;;15.10;99.90;;;;;;6012988;29;20491;-71
2022/10/01 05:01:48;;;;;;;13.50;12.10;;;15.20;99.90;;;;;;6013829;29;20850;-70
2022/10/01 05:04:53;;;;;;;13.80;12.43;;;15.20;99.90;;;;;;6013722;29;20484;-71
2022/10/01 05:07:56;;;;;;;11.70;9.80;;;15.20;99.90;;;;;;6012281;29;20803;-72
2022/10/01 05:11:00;;;;;;;14.50;12.60;;;15.20;99.90;;;;;;6012965;29;20484;-71
2022/10/01 05:14:03;;;;;;;11.73;10.57;;;15.20;99.90;;;;;;6013211;29;20481;-71
2022/10/01 05:17:06;;;;;;;11.97;10.77;;;15.20;99.90;;;;;;6015489;29;20495;-70
2022/10/01 05:20:18;;;;;;;12.47;11.17;;;15.10;99.90;;;;;;6017539;29;20480;-71
2022/10/01 05:23:21;;;;;;;14.23;10.70;;;15.10;99.90;;;;;;6016786;29;20510;-71
2022/10/01 05:26:25;;;;;;;12.40;11.00;;;15.10;99.90;;;;;;6016932;29;20484;-71
2022/10/01 05:29:28;;;;;;;12.07;10.83;;;15.10;99.90;;;;;;6016345;29;20480;-70
2022/10/01 05:32:31;;;;;;;9.63;8.70;;;15.10;99.90;;;;;;6017058;29;20487;-71
2022/10/01 05:35:36;;;;;;;17.73;14.70;;;15.10;99.90;;;;;;6017376;29;20483;-71
2022/10/01 05:38:40;;;;;;;43.17;31.00;;;15.10;99.90;;;;;;6016172;29;20499;-70
2022/10/01 05:41:43;;;;;;;21.23;15.50;;;15.10;99.90;;;;;;6016051;29;20503;-70
2022/10/01 05:44:48;;;;;;;11.33;9.23;;;15.10;99.90;;;;;;6011764;29;20548;-71
2022/10/01 05:47:59;;;;;;;13.83;12.40;;;15.10;99.90;;;;;;6016911;29;20494;-71
2022/10/01 05:51:05;;;;;;;10.80;9.20;;;15.10;99.90;;;;;;6016474;29;20545;-71
2022/10/01 05:54:08;;;;;;;11.70;10.50;;;15.10;99.90;;;;;;6016257;29;21021;-71
2022/10/01 05:57:11;;;;;;;13.77;12.40;;;15.10;99.90;;;;;;6015975;29;20499;-70
2022/10/01 06:00:15;;;;;;;14.60;11.67;;;15.10;99.90;;;;;;6016094;29;20476;-71
2022/10/01 06:03:18;;;;;;;11.20;10.10;;;15.00;99.90;;;;;;6016295;29;20480;-71
2022/10/01 06:06:23;;;;;;;12.43;10.30;;;15.10;99.90;;;;;;6016581;29;20484;-71
2022/10/01 06:09:26;;;;;;;13.47;10.73;;;15.10;99.90;;;;;;6015851;29;20499;-70
2022/10/01 06:12:29;;;;;;;12.37;10.20;;;15.10;99.90;;;;;;6015725;29;21001;-71
2022/10/01 06:15:36;;;;;;;15.00;11.40;;;15.00;99.90;;;;;;6017289;29;20862;-71
2022/10/01 06:18:40;;;;;;;11.40;9.60;;;15.00;99.90;;;;;;6016292;29;20501;-72
2022/10/01 06:21:44;;;;;;;15.20;11.63;;;15.00;99.90;;;;;;6015595;29;20487;-72
2022/10/01 06:24:47;;;;;;;16.90;12.50;;;15.00;99.90;;;;;;6016056;29;20495;-72
2022/10/01 06:27:55;;;;;;;14.43;11.60;;;15.10;99.90;;;;;;6015189;29;20795;-71
2022/10/01 06:31:01;;;;;;;14.87;12.40;;;15.10;99.90;;;;;;6015486;29;20550;-72
2022/10/01 06:34:04;;;;;;;16.60;12.40;;;15.10;99.90;;;;;;6015603;29;20488;-72
2022/10/01 06:37:09;;;;;;;12.57;10.97;;;15.10;99.90;;;;;;6015313;29;20833;-71
2022/10/01 06:40:13;;;;;;;14.50;11.97;;;15.20;99.90;;;;;;6016028;29;20503;-72
2022/10/01 06:43:16;;;;;;;12.90;11.23;;;15.20;99.90;;;;;;6015678;29;20456;-72
2022/10/01 06:46:19;;;;;;;14.57;11.30;;;15.30;99.90;;;;;;6015745;29;20460;-72
2022/10/01 06:49:22;;;;;;;12.10;10.80;;;15.30;99.90;;;;;;6015771;29;20476;-71
2022/10/01 06:55:48;;;;;;;17.47;11.60;;;15.40;99.90;;;;;;6014874;29;20480;-70
2022/10/01 06:58:51;;;;;;;12.93;11.17;;;15.50;99.90;;;;;;6014183;29;20559;-70
2022/10/01 07:01:55;;;;;;;12.87;10.80;;;15.60;99.90;;;;;;6014584;29;20491;-70
2022/10/01 07:04:59;;;;;;;10.70;9.60;;;15.70;99.90;;;;;;6014451;29;20486;-70
2022/10/01 07:08:03;;;;;;;11.73;10.53;;;15.70;99.90;;;;;;6014567;29;20485;-69
2022/10/01 07:11:07;;;;;;;12.80;9.40;;;15.70;99.90;;;;;;6014200;29;20480;-71
2022/10/01 07:14:10;;;;;;;9.40;8.40;;;15.70;99.90;;;;;;6023917;29;20971;-71
2022/10/01 07:17:13;;;;;;;12.30;10.57;;;15.80;99.90;;;;;;6025449;29;20484;-71
2022/10/01 07:20:18;;;;;;;12.43;10.40;;;15.90;99.90;;;;;;6021336;29;20480;-71
2022/10/01 07:23:23;;;;;;;12.13;10.00;;;15.90;99.90;;;;;;6015894;29;20869;-71
2022/10/01 07:26:26;;;;;;;15.83;13.20;;;16.00;99.90;;;;;;6023505;29;20536;-71
2022/10/01 07:29:30;;;;;;;13.13;11.20;;;16.00;99.90;;;;;;6033970;29;20490;-69
2022/10/01 07:32:34;;;;;;;14.50;11.83;;;15.90;99.90;;;;;;6036466;29;20479;-70
2022/10/01 07:35:37;;;;;;;16.07;13.73;;;15.90;99.90;;;;;;6022489;29;20823;-71
2022/10/01 07:38:42;;;;;;;14.00;12.07;;;16.00;99.90;;;;;;6017846;29;20515;-70
2022/10/01 07:41:45;;;;;;;12.20;11.10;;;16.10;99.90;;;;;;6014061;29;20867;-71
2022/10/01 07:44:48;;;;;;;12.33;10.97;;;16.10;99.90;;;;;;6022651;29;20590;-70
2022/10/01 07:47:57;;;;;;;12.47;10.73;;;16.00;99.90;;;;;;6026746;29;20475;-70
2022/10/01 07:51:00;;;;;;;12.20;10.07;;;16.10;99.90;;;;;;6028602;29;20964;-70
2022/10/01 07:54:05;;;;;;;10.47;9.37;;;16.20;99.90;;;;;;6025614;29;20476;-71
2022/10/01 07:57:08;;;;;;;11.00;9.80;;;16.30;99.90;;;;;;6023015;29;20487;-71
2022/10/01 08:00:12;;;;;;;9.63;8.77;;;16.30;99.90;;;;;;6021792;29;20487;-71
2022/10/01 08:03:15;;;;;;;8.07;7.30;;;16.30;99.90;;;;;;6021692;29;20557;-71
2022/10/01 08:06:19;;;;;;;7.97;5.50;;;16.20;99.90;;;;;;6028120;29;20490;-71
2022/10/01 08:09:29;;;;;;;6.83;6.23;;;16.30;99.90;;;;;;6036131;29;20490;-72
2022/10/01 08:12:32;;;;;;;7.30;6.57;;;16.40;99.90;;;;;;6036303;29;20532;-71
2022/10/01 08:15:35;;;;;;;5.70;5.20;;;16.60;99.90;;;;;;6036230;29;20965;-72
2022/10/01 08:18:40;;;;;;;5.23;4.73;;;16.80;99.90;;;;;;6035613;29;20519;-70
2022/10/01 08:21:43;;;;;;;6.60;5.70;;;16.90;99.90;;;;;;6036361;29;20487;-70
2022/10/01 08:24:47;;;;;;;7.50;6.80;;;17.10;99.90;;;;;;6036701;29;20486;-70
2022/10/01 08:27:50;;;;;;;8.97;8.13;;;17.40;99.90;;;;;;6036425;29;20498;-71
2022/10/01 08:30:54;;;;;;;9.20;8.17;;;17.40;99.90;;;;;;6036318;29;20475;-71
2022/10/01 08:33:58;;;;;;;7.60;6.90;;;17.30;99.90;;;;;;6036188;29;20479;-71
2022/10/01 08:37:01;;;;;;;7.67;6.97;;;17.30;99.90;;;;;;6036715;29;20479;-70
2022/10/01 08:40:07;;;;;;;7.10;6.50;;;17.50;99.90;;;;;;6036412;29;20487;-72
2022/10/01 08:43:28;;;;;;;8.67;7.87;;;17.50;99.90;;;;;;6036738;29;20463;-71
2022/10/01 08:46:35;;;;;;;7.97;7.17;;;17.60;99.90;;;;;;6036720;29;20547;-72
2022/10/01 08:49:43;;;;;;;7.80;7.10;;;17.50;99.90;;;;;;6036410;29;20479;-70
2022/10/01 08:52:52;;;;;;;6.80;6.20;;;17.30;99.90;;;;;;6041033;29;20489;-70
2022/10/01 08:55:58;;;;;;;5.23;4.83;;;17.20;99.90;;;;;;6036922;29;20494;-72
2022/10/01 08:59:05;;;;;;;4.77;4.37;;;17.50;99.90;;;;;;6041076;29;20487;-71
2022/10/01 09:02:19;;;;;;;4.83;4.43;;;17.90;99.90;;;;;;6040859;29;20538;-72
2022/10/01 09:05:27;;;;;;;5.13;4.73;;;18.40;99.90;;;;;;6029571;29;20479;-71
2022/10/01 09:08:46;;;;;;;5.50;4.87;;;18.60;99.90;;;;;;6035588;29;20479;-71
2022/10/01 09:12:02;;;;;;;4.83;4.47;;;18.70;99.90;;;;;;6024934;29;20540;-71
2022/10/01 09:15:26;;;;;;;4.47;4.07;;;19.10;99.90;;;;;;6029386;29;20637;-72
2022/10/01 09:18:39;;;;;;;4.90;4.50;;;20.20;99.90;;;;;;6024076;29;20250;-71
2022/10/01 09:21:53;;;;;;;4.10;3.80;;;21.30;99.90;;;;;;6028940;29;20575;-72
2022/10/01 09:25:03;;;;;;;4.33;3.93;;;22.20;99.90;;;;;;6024953;29;20267;-72
2022/10/01 09:28:15;;;;;;;5.10;4.60;;;23.20;99.90;;;;;;6026196;29;20525;-71
2022/10/01 09:31:26;;;;;;;5.03;4.63;;;23.60;99.90;;;;;;6022595;29;20192;-71
2022/10/01 09:34:35;;;;;;;5.10;4.67;;;23.70;98.50;;;;;;6026945;29;20631;-71
2022/10/01 09:37:43;;;;;;;4.13;3.83;;;23.50;98.40;;;;;;6025263;29;20244;-71
2022/10/01 09:40:53;;;;;;;4.20;3.90;;;23.30;97.90;;;;;;6028077;29;20676;-72
2022/10/01 09:43:58;;;;;;;4.73;4.43;;;22.60;98.80;;;;;;6026536;29;20689;-69
2022/10/01 09:47:01;;;;;;;4.90;4.50;;;22.10;99.20;;;;;;6027693;29;20235;-69
2022/10/01 09:50:06;;;;;;;4.37;4.07;;;21.70;99.80;;;;;;6024670;29;20246;-68
2022/10/01 09:53:16;;;;;;;4.60;4.20;;;21.50;99.90;;;;;;6027236;29;20241;-68
2022/10/01 09:56:24;;;;;;;5.10;4.70;;;21.20;99.90;;;;;;6022102;29;20239;-68
2022/10/01 09:59:34;;;;;;;3.90;3.60;;;21.10;99.90;;;;;;6029315;29;20318;-68
2022/10/01 10:02:40;;;;;;;5.20;4.73;;;20.90;99.90;;;;;;6034041;29;20250;-67
2022/10/01 10:05:50;;;;;;;4.30;4.00;;;20.90;99.90;;;;;;6038519;29;20246;-68
2022/10/01 10:08:55;;;;;;;4.90;4.50;;;20.90;99.90;;;;;;6036577;29;20604;-66
2022/10/01 10:11:59;;;;;;;4.60;4.20;;;20.80;99.90;;;;;;6029072;29;20555;-66
2022/10/01 10:15:10;;;;;;;5.20;4.80;;;21.20;99.90;;;;;;6013476;29;20242;-67
2022/10/01 10:18:16;;;;;;;3.80;3.50;;;21.40;99.90;;;;;;6025510;29;20253;-67
2022/10/01 10:21:28;;;;;;;3.90;3.60;;;21.50;99.90;;;;;;5992390;29;20255;-67
2022/10/01 10:24:33;;;;;;;4.37;4.07;;;21.70;99.90;;;;;;5992404;29;20668;-66
2022/10/01 10:27:36;;;;;;;4.67;4.37;;;21.40;99.90;;;;;;5992449;29;20306;-67
2022/10/01 10:30:42;;;;;;;4.70;4.30;;;21.00;99.90;;;;;;6015580;29;20268;-67
2022/10/01 10:33:53;;;;;;;4.80;4.40;;;20.60;99.90;;;;;;6014710;29;20236;-67
2022/10/01 10:36:57;;;;;;;4.77;4.37;;;20.50;99.90;;;;;;6014794;29;20616;-68
2022/10/01 10:40:01;;;;;;;5.10;4.70;;;20.60;99.90;;;;;;6014766;29;20239;-67
2022/10/01 10:43:05;;;;;;;4.53;4.23;;;20.60;99.90;;;;;;6015138;29;20235;-67
2022/10/01 10:46:10;;;;;;;5.93;5.30;;;20.60;99.90;;;;;;6014990;29;20242;-67
2022/10/01 10:49:20;;;;;;;4.30;3.90;;;20.60;99.90;;;;;;6015166;29;20242;-67
2022/10/01 10:52:29;;;;;;;4.90;4.50;;;20.70;99.90;;;;;;6014848;29;20211;-67
2022/10/01 10:55:32;;;;;;;5.47;4.13;;;20.60;99.90;;;;;;6014789;29;20278;-67
2022/10/01 10:58:41;;;;;;;4.60;4.30;;;20.50;99.90;;;;;;6014849;29;20239;-66
2022/10/01 11:01:47;;;;;;;4.70;4.30;;;20.60;99.90;;;;;;6014736;29;20254;-68
2022/10/01 11:04:51;;;;;;;4.30;4.00;;;20.50;99.90;;;;;;6001678;29;20235;-66
2022/10/01 11:07:57;;;;;;;4.70;4.27;;;20.60;99.90;;;;;;6013938;29;20258;-71
2022/10/01 11:11:11;;;;;;;4.27;3.97;;;20.30;99.90;;;;;;6014274;29;20243;-68
2022/10/01 11:14:26;;;;;;;4.43;4.13;;;20.40;99.90;;;;;;6014156;29;20242;-68
2022/10/01 11:17:56;;;;;;;4.90;4.50;;;20.40;99.90;;;;;;6013655;29;20258;-66
2022/10/01 11:21:23;;;;;;;6.57;6.00;;;20.50;99.90;;;;;;6013805;29;20239;-67
2022/10/01 11:24:59;;;;;;;5.00;4.60;;;20.40;99.90;;;;;;5998238;29;20550;-67
2022/10/01 11:28:15;;;;;;;6.30;4.50;;;20.80;99.90;;;;;;6013571;29;20335;-67
2022/10/01 11:31:31;;;;;;;4.97;4.50;;;21.10;99.90;;;;;;6013389;29;20320;-67
2022/10/01 11:34:55;;;;;;;4.33;3.97;;;22.40;99.90;;;;;;6019047;29;20699;-68
2022/10/01 11:38:31;;;;;;;4.07;3.57;;;24.80;98.20;;;;;;6029616;29;20242;-68
2022/10/01 11:41:38;;;;;;;4.57;4.13;;;26.00;93.80;;;;;;6011232;29;20242;-68
2022/10/01 11:44:46;;;;;;;5.03;4.43;;;26.20;93.30;;;;;;6021611;29;20222;-68
2022/10/01 11:47:54;;;;;;;4.03;3.63;;;27.50;91.00;;;;;;6030594;29;20695;-69
2022/10/01 11:51:06;;;;;;;4.13;3.83;;;28.20;87.70;;;;;;6025288;29;20237;-69
2022/10/01 11:54:13;;;;;;;4.63;4.33;;;29.10;82.70;;;;;;6024488;29;20745;-70
2022/10/01 12:00:39;;;;;;;3.80;3.50;;;30.30;70.70;;;;;;6025498;29;20238;-68
2022/10/01 12:04:03;;;;;;;4.00;3.60;;;30.70;69.60;;;;;;6021321;29;20239;-68
2022/10/01 12:07:13;;;;;;;3.90;3.60;;;30.50;65.50;;;;;;6021950;29;20279;-70
2022/10/01 12:10:25;;;;;;;3.47;3.13;;;30.30;65.60;;;;;;6023454;29;20549;-69
2022/10/01 12:13:33;;;;;;;3.27;2.93;;;30.60;65.50;;;;;;6024162;29;20244;-69
2022/10/01 12:16:43;;;;;;;7.40;6.80;;;31.20;62.40;;;;;;6021026;29;20573;-69
2022/10/01 12:19:50;;;;;;;4.47;4.10;;;30.90;61.30;;;;;;6025892;29;20240;-69
2022/10/01 12:22:57;;;;;;;3.73;3.33;;;30.10;62.50;;;;;;6022728;29;20238;-69
2022/10/01 12:26:08;;;;;;;8.23;5.13;;;29.40;64.40;;;;;;6015534;29;20246;-69
2022/10/01 12:29:17;;;;;;;4.10;3.80;;;29.30;65.90;;;;;;6027224;29;20249;-69
2022/10/01 12:32:26;;;;;;;3.60;3.30;;;29.70;65.40;;;;;;6037583;29;20579;-69
2022/10/01 12:35:42;;;;;;;8.03;6.60;;;30.60;62.70;;;;;;6028810;29;20239;-65
2022/10/01 12:39:00;;;;;;;4.53;4.13;;;32.20;59.00;;;;;;6028083;29;20249;-66
2022/10/01 12:42:20;;;;;;;4.38;4.00;;;33.40;56.80;;;;;;6033391;29;20690;-64
2022/10/01 12:45:31;;;;;;;5.50;4.30;;;32.50;56.50;;;;;;6026037;29;20275;-64
2022/10/01 12:48:41;;;;;;;4.40;3.20;;;31.50;57.90;;;;;;5994419;29;20276;-65
2022/10/01 12:51:47;;;;;;;9.50;8.20;;;30.40;59.90;;;;;;5994388;29;20340;-66
2022/10/01 12:55:03;;;;;;;4.27;3.87;;;29.40;62.20;;;;;;5994567;29;20349;-64
2022/10/01 12:58:16;;;;;;;3.77;3.47;;;28.90;63.80;;;;;;6006000;29;20706;-64
2022/10/01 13:01:31;;;;;;;3.97;3.67;;;28.30;64.40;;;;;;6025954;29;20226;-64
2022/10/01 13:04:54;;;;;;;3.30;3.10;;;26.40;69.50;;;;;;6039264;29;20975;-69
2022/10/01 13:08:08;;;;;;;5.90;3.90;;;25.50;73.80;;;;;;6029975;29;20238;-70
2022/10/01 13:11:22;;;;;;;4.80;4.40;;;24.30;79.10;;;;;;6033992;29;20620;-70
2022/10/01 13:14:26;;;;;;;4.10;3.80;;;23.20;85.10;;;;;;6038185;29;20587;-70
2022/10/01 13:17:34;;;;;;;5.07;4.60;;;23.20;87.00;;;;;;6037613;29;20353;-71
2022/10/01 13:20:43;;;;;;;5.13;4.73;;;23.30;88.00;;;;;;6037959;29;20246;-71
2022/10/01 13:23:54;;;;;;;4.77;3.97;;;22.80;89.10;;;;;;6037210;29;20242;-70
2022/10/01 13:27:04;;;;;;;4.37;4.07;;;22.50;90.20;;;;;;6037003;29;20687;-70
2022/10/01 13:30:17;;;;;;;5.33;4.93;;;22.20;91.20;;;;;;6038679;29;20246;-70
2022/10/01 13:33:23;;;;;;;4.47;4.17;;;21.90;92.20;;;;;;6038570;29;20295;-70
2022/10/01 13:36:31;;;;;;;4.33;4.03;;;21.60;93.10;;;;;;6039090;29;20257;-70
2022/10/01 13:39:40;;;;;;;5.43;5.03;;;21.50;94.00;;;;;;6038963;29;20238;-70
2022/10/01 13:42:47;;;;;;;4.60;4.27;;;21.50;94.70;;;;;;6038890;29;20238;-70
2022/10/01 13:45:52;;;;;;;4.27;3.97;;;21.50;95.10;;;;;;6039271;29;20245;-70
2022/10/01 13:48:56;;;;;;;4.30;3.90;;;21.40;95.50;;;;;;6038646;29;20254;-70
2022/10/01 13:52:01;;;;;;;3.97;3.67;;;21.30;95.80;;;;;;6039000;29;20238;-70
2022/10/01 13:55:04;;;;;;;3.90;3.60;;;21.30;96.20;;;;;;6038833;29;20687;-70
2022/10/01 13:58:23;;;;;;;4.43;4.03;;;21.20;96.60;;;;;;6038950;29;20245;-70
2022/10/01 14:01:30;;;;;;;5.20;4.70;;;21.10;97.20;;;;;;6038453;29;20667;-70
2022/10/01 14:04:38;;;;;;;5.43;5.03;;;21.10;97.40;;;;;;6039250;29;20374;-70
2022/10/01 14:07:43;;;;;;;3.53;3.33;;;21.10;97.60;;;;;;6038653;29;20255;-70
2022/10/01 14:17:46;;;;;;;8.07;7.47;;;21.10;98.10;;;;;;6025011;29;20257;-70
2022/10/01 14:20:57;;;;;;;7.03;6.20;;;21.20;98.50;;;;;;6038261;29;20567;-70
2022/10/01 14:24:09;;;;;;;4.83;4.43;;;21.10;98.60;;;;;;6038286;29;20326;-70
2022/10/01 14:27:20;;;;;;;4.07;3.77;;;20.90;98.80;;;;;;6038404;29;20231;-70
2022/10/01 14:30:31;;;;;;;4.83;4.43;;;20.60;99.20;;;;;;6038108;29;20307;-70
2022/10/01 14:33:56;;;;;;;5.63;5.17;;;20.60;99.90;;;;;;6038249;29;20242;-70
2022/10/01 14:37:00;;;;;;;6.20;4.93;;;20.40;99.90;;;;;;6022717;29;20727;-70
2022/10/01 14:40:14;;;;;;;6.67;5.10;;;20.20;99.90;;;;;;6037681;29;20707;-69
2022/10/01 14:43:19;;;;;;;5.57;5.07;;;20.00;99.90;;;;;;6037459;29;20316;-69
2022/10/01 14:46:24;;;;;;;5.80;5.20;;;19.90;99.90;;;;;;6037911;29;20210;-69
2022/10/01 14:49:29;;;;;;;6.47;5.90;;;19.80;99.90;;;;;;6036965;29;20242;-70
2022/10/01 14:52:32;;;;;;;6.73;6.13;;;19.80;99.90;;;;;;6038165;29;20227;-70
2022/10/01 14:55:36;;;;;;;6.50;5.90;;;19.80;99.90;;;;;;6038009;29;20241;-70
2022/10/01 14:58:43;;;;;;;6.80;5.93;;;19.70;99.90;;;;;;6037615;29;20736;-69
2022/10/01 15:01:59;;;;;;;7.57;6.90;;;19.70;99.90;;;;;;6037476;29;20595;-70
2022/10/01 15:05:20;;;;;;;6.33;5.80;;;19.50;99.90;;;;;;6037950;29;20235;-69
2022/10/01 15:08:35;;;;;;;6.20;5.73;;;19.40;99.90;;;;;;6037055;29;20238;-70
2022/10/01 15:11:40;;;;;;;6.03;5.53;;;19.40;99.90;;;;;;6037095;29;20249;-70
2022/10/01 15:14:47;;;;;;;8.03;6.83;;;19.30;99.90;;;;;;6037066;29;20573;-70
2022/10/01 15:17:52;;;;;;;6.33;5.83;;;19.20;99.90;;;;;;6036768;29;20250;-70
2022/10/01 15:20:58;;;;;;;6.30;5.80;;;19.20;99.90;;;;;;6028312;29;20325;-70
2022/10/01 15:24:03;;;;;;;6.80;6.10;;;19.20;99.90;;;;;;6036927;29;20675;-70
2022/10/01 15:27:08;;;;;;;6.40;5.80;;;19.10;99.90;;;;;;6037031;29;20238;-70
2022/10/01 15:30:17;;;;;;;5.30;4.80;;;19.10;99.90;;;;;;6037099;29;20234;-70
2022/10/01 15:33:27;;;;;;;6.57;5.97;;;19.10;99.90;;;;;;6037086;29;20232;-70
2022/10/01 15:36:31;;;;;;;8.83;6.20;;;19.10;99.90;;;;;;6036963;29;20239;-70
2022/10/01 15:39:38;;;;;;;7.37;6.57;;;19.10;99.90;;;;;;6036768;29;20356;-70
2022/10/01 15:43:08;;;;;;;7.50;6.20;;;19.00;99.90;;;;;;6036293;29;20257;-70
2022/10/01 15:46:18;;;;;;;6.20;5.70;;;19.00;99.90;;;;;;6036319;29;20247;-69
2022/10/01 15:49:24;;;;;;;6.57;5.67;;;19.00;99.90;;;;;;6036588;29;20296;-70
2022/10/01 15:55:53;;;;;;;6.40;5.90;;;18.90;99.90;;;;;;6036920;29;20254;-70
2022/10/01 15:59:02;;;;;;;6.00;5.50;;;18.80;99.90;;;;;;6036366;29;20492;-70
2022/10/01 16:02:14;;;;;;;7.07;6.40;;;18.80;99.90;;;;;;6035755;29;20604;-70
2022/10/01 16:05:21;;;;;;;7.13;6.40;;;18.70;99.90;;;;;;6036697;29;20475;-70
2022/10/01 16:08:32;;;;;;;7.77;7.07;;;18.60;99.90;;;;;;6036719;29;20491;-70
2022/10/01 16:11:51;;;;;;;6.67;6.03;;;18.50;99.90;;;;;;6036301;29;20574;-70
2022/10/01 16:14:58;;;;;;;8.10;7.40;;;18.40;99.90;;;;;;6036382;29;20475;-69
2022/10/01 16:18:02;;;;;;;7.37;6.70;;;18.40;99.90;;;;;;6036196;29;20520;-69
2022/10/01 16:21:08;;;;;;;7.73;7.13;;;18.40;99.90;;;;;;6036272;29;20475;-69
2022/10/01 16:24:27;;;;;;;11.43;7.80;;;18.40;99.90;;;;;;6031772;29;20487;-69
2022/10/01 16:27:34;;;;;;;8.60;7.80;;;18.30;99.90;;;;;;6035888;29;20491;-70
2022/10/01 16:30:37;;;;;;;8.37;7.63;;;18.30;99.90;;;;;;6036228;29;20475;-69
2022/10/01 16:33:40;;;;;;;8.90;8.10;;;18.30;99.90;;;;;;6035952;29;20490;-70
2022/10/01 16:36:45;;;;;;;7.70;7.00;;;18.20;99.90;;;;;;6035842;29;20487;-70
2022/10/01 16:39:48;;;;;;;8.40;7.67;;;18.10;99.90;;;;;;6035929;29;20495;-70